Terminal Aerodrome Forecast
Issued by NWS

Home | Current Version | Previous Version | Text Only | Print | Product List | Glossary On
Versions: 1 2 3 4 5 6 7 8 9 10 11 12 13 14 15 16 17 18 19 20 21 22
000
FTUS44 KOUN 051722
TAFCSM
TAF
KCSM 051722Z 0518/0618 14018G25KT 3SM RA BR BKN010 OVC015
     FM052300 15019G25KT P6SM VCSH BKN015 OVC025
      TEMPO 0602/0606 5SM -TSRA OVC015CB
     FM060600 16012G19KT 6SM BR OVC008=

USA.gov is the U.S. government's official web portal to all federal, state and local government web resources and services.